Time;durP1;ratioP1;P1;durP2;ratioP2;P2;SDS_P1;SDS_P2;PMS_P1;PMS_P2;Temp;Humidity;BMP_temperature;BMP_pressure;BME280_temperature;BME280_humidity;BME280_pressure;Samples;Min_cycle;Max_cycle;Signal;HPM_P1;HPM_P2
2022/11/07 00:02:24;;;;;;;23.77;6.53;;;11.00;99.90;;;;;;5094567;28;20089;-67
2022/11/07 00:04:50;;;;;;;31.30;7.07;;;11.20;99.90;;;;;;5094244;28;20036;-67
2022/11/07 00:07:15;;;;;;;23.13;6.13;;;11.10;99.90;;;;;;5094157;28;20026;-65
2022/11/07 00:09:41;;;;;;;28.85;6.78;;;11.20;99.90;;;;;;5094530;28;20111;-66
2022/11/07 00:12:07;;;;;;;32.38;7.75;;;11.10;99.90;;;;;;5093983;28;20024;-66
2022/11/07 00:14:33;;;;;;;36.78;7.07;;;11.10;99.90;;;;;;5093768;28;20352;-67
2022/11/07 00:16:59;;;;;;;25.48;6.53;;;11.00;99.90;;;;;;5094092;28;20016;-67
2022/11/07 00:19:25;;;;;;;23.63;6.68;;;11.00;99.90;;;;;;5093751;28;20028;-66
2022/11/07 00:21:50;;;;;;;26.75;6.63;;;10.90;99.90;;;;;;5094349;28;20031;-66
2022/11/07 00:24:17;;;;;;;20.70;6.50;;;10.90;99.90;;;;;;5094037;28;20042;-66
2022/11/07 00:26:44;;;;;;;25.92;7.10;;;11.00;99.90;;;;;;5093772;28;20205;-66
2022/11/07 00:29:14;;;;;;;29.50;7.43;;;11.00;99.90;;;;;;5093703;28;20012;-67
2022/11/07 00:31:40;;;;;;;24.88;6.85;;;11.00;99.90;;;;;;5093555;28;20423;-67
2022/11/07 00:34:06;;;;;;;23.30;6.43;;;11.10;99.90;;;;;;5093639;28;20028;-67
2022/11/07 00:36:32;;;;;;;23.05;6.45;;;11.10;99.90;;;;;;5093808;28;20020;-67
2022/11/07 00:38:57;;;;;;;21.50;6.43;;;11.20;99.90;;;;;;5094020;28;20030;-67
2022/11/07 00:41:23;;;;;;;20.25;6.13;;;11.20;99.90;;;;;;5093210;28;20044;-67
2022/11/07 00:43:50;;;;;;;24.45;6.72;;;11.20;99.90;;;;;;5093244;28;20063;-67
2022/11/07 00:46:18;;;;;;;18.30;5.90;;;11.20;99.90;;;;;;5093538;28;20020;-66
2022/11/07 00:48:44;;;;;;;23.05;6.22;;;11.20;99.90;;;;;;5093680;28;20072;-66
2022/11/07 00:51:15;;;;;;;22.88;6.70;;;11.20;99.90;;;;;;5093429;28;20063;-67
2022/11/07 00:53:42;;;;;;;25.50;7.55;;;11.20;99.90;;;;;;5092190;28;20031;-67
2022/11/07 00:56:11;;;;;;;19.05;5.55;;;11.20;99.90;;;;;;5093186;28;20020;-67
2022/11/07 00:58:37;;;;;;;23.88;6.30;;;11.20;99.90;;;;;;5092947;28;20040;-66
2022/11/07 01:01:12;;;;;;;22.55;6.35;;;11.30;99.90;;;;;;5093263;28;20020;-67
2022/11/07 01:06:23;;;;;;;24.05;6.05;;;11.30;99.90;;;;;;5093420;28;20039;-67
2022/11/07 01:08:50;;;;;;;23.30;5.95;;;11.20;99.90;;;;;;5092912;28;20028;-67
2022/11/07 01:11:16;;;;;;;21.85;6.15;;;11.10;99.90;;;;;;5092826;28;20031;-67
2022/11/07 01:13:42;;;;;;;28.27;6.65;;;11.20;99.90;;;;;;5092996;28;20110;-67
2022/11/07 01:16:09;;;;;;;19.27;5.68;;;11.20;99.90;;;;;;5093029;28;20526;-66
2022/11/07 01:18:35;;;;;;;27.30;6.00;;;11.20;99.90;;;;;;5092935;28;20486;-67
2022/11/07 01:21:04;;;;;;;20.98;6.03;;;11.20;99.90;;;;;;5092802;28;20031;-67
2022/11/07 01:23:30;;;;;;;17.90;5.47;;;11.30;99.90;;;;;;5092841;28;20110;-67
2022/11/07 01:25:55;;;;;;;21.90;5.40;;;11.20;99.90;;;;;;5093004;28;20467;-67
2022/11/07 01:28:21;;;;;;;18.60;5.43;;;11.20;99.90;;;;;;5092359;28;20027;-66
2022/11/07 01:30:47;;;;;;;20.63;5.60;;;11.20;99.90;;;;;;5092447;28;20032;-66
2022/11/07 01:33:13;;;;;;;22.38;6.35;;;11.10;99.90;;;;;;5091994;28;20395;-67
2022/11/07 01:35:39;;;;;;;25.65;5.93;;;11.00;99.90;;;;;;5092442;28;20032;-66
2022/11/07 01:38:05;;;;;;;19.08;5.35;;;10.90;99.90;;;;;;5092504;28;20027;-65
2022/11/07 01:40:32;;;;;;;17.15;5.32;;;10.90;99.90;;;;;;5092683;28;20031;-67
2022/11/07 01:42:58;;;;;;;17.58;5.47;;;10.90;99.90;;;;;;5091978;28;20056;-66
2022/11/07 01:45:27;;;;;;;22.92;6.47;;;10.80;99.90;;;;;;5092265;28;20128;-66
2022/11/07 01:47:56;;;;;;;15.32;5.63;;;10.70;99.90;;;;;;5092323;28;20111;-67
2022/11/07 01:50:22;;;;;;;21.25;6.60;;;10.80;99.90;;;;;;5092360;28;20344;-67
2022/11/07 01:52:50;;;;;;;18.80;5.63;;;10.70;99.90;;;;;;5092616;28;20055;-67
2022/11/07 01:55:25;;;;;;;23.42;6.20;;;10.70;99.90;;;;;;5091685;28;20102;-67
2022/11/07 01:57:58;;;;;;;20.30;6.18;;;10.70;99.90;;;;;;5092268;28;20103;-67
2022/11/07 02:00:25;;;;;;;23.45;6.18;;;10.70;99.90;;;;;;5092243;28;20118;-67
2022/11/07 02:02:57;;;;;;;24.60;7.15;;;10.60;99.90;;;;;;5092109;28;20401;-67
2022/11/07 02:05:30;;;;;;;16.83;6.18;;;10.50;99.90;;;;;;5092179;28;20031;-67
2022/11/07 02:07:56;;;;;;;20.40;6.75;;;10.50;99.90;;;;;;5092282;28;20016;-66
2022/11/07 02:10:22;;;;;;;22.80;7.85;;;10.50;99.90;;;;;;5091487;28;20136;-66
2022/11/07 02:12:48;;;;;;;19.17;6.60;;;10.50;99.90;;;;;;5091902;28;20035;-66
2022/11/07 02:15:14;;;;;;;20.70;7.70;;;10.60;99.90;;;;;;5091959;28;20035;-66
2022/11/07 02:17:40;;;;;;;19.05;8.23;;;10.50;99.90;;;;;;5092116;28;20024;-67
2022/11/07 02:20:06;;;;;;;15.60;7.78;;;10.50;99.90;;;;;;5091815;28;20031;-67
2022/11/07 02:22:53;;;;;;;21.80;8.43;;;10.60;99.90;;;;;;5091939;28;20028;-66
2022/11/07 02:25:19;;;;;;;18.17;9.10;;;10.50;99.90;;;;;;5091367;28;20043;-67
2022/11/07 02:27:49;;;;;;;20.98;9.93;;;10.60;99.90;;;;;;5091795;28;20026;-67
2022/11/07 02:30:19;;;;;;;17.75;9.73;;;10.60;99.90;;;;;;5092099;28;20027;-66
2022/11/07 02:32:45;;;;;;;22.02;10.35;;;10.60;99.90;;;;;;5091563;28;20065;-66
2022/11/07 02:35:40;;;;;;;25.10;11.35;;;10.70;99.90;;;;;;5091960;28;20109;-67
2022/11/07 02:38:13;;;;;;;18.60;10.55;;;10.70;99.90;;;;;;5091702;28;20028;-66
2022/11/07 02:40:40;;;;;;;25.83;11.38;;;10.70;99.90;;;;;;5091203;28;20554;-66
2022/11/07 02:43:08;;;;;;;24.25;11.18;;;10.70;99.90;;;;;;5093263;28;20049;-66
2022/11/07 02:45:38;;;;;;;18.40;10.32;;;10.70;99.90;;;;;;5095731;28;20043;-67
2022/11/07 02:48:04;;;;;;;18.08;10.40;;;10.70;99.90;;;;;;5096038;28;20024;-67
2022/11/07 02:50:30;;;;;;;16.90;8.65;;;10.80;99.90;;;;;;5095857;28;20039;-67
2022/11/07 02:52:55;;;;;;;18.90;9.07;;;10.90;99.90;;;;;;5095571;28;20020;-65
2022/11/07 02:55:21;;;;;;;15.95;8.82;;;10.90;99.90;;;;;;5095353;28;20520;-67
2022/11/07 02:57:47;;;;;;;18.33;9.90;;;10.90;99.90;;;;;;5095689;28;20043;-66
2022/11/07 03:00:14;;;;;;;17.52;9.80;;;10.80;99.90;;;;;;5095723;28;20188;-67
2022/11/07 03:02:45;;;;;;;16.92;10.10;;;10.70;99.90;;;;;;5095669;28;20016;-65
2022/11/07 03:05:15;;;;;;;18.92;9.73;;;10.70;99.90;;;;;;5095514;28;20043;-66
2022/11/07 03:07:43;;;;;;;16.55;9.73;;;10.70;99.90;;;;;;5094964;28;20482;-66
2022/11/07 03:10:09;;;;;;;17.85;9.52;;;10.70;99.90;;;;;;5095607;28;20036;-66
2022/11/07 03:12:35;;;;;;;17.70;9.52;;;10.70;99.90;;;;;;5095317;28;20023;-66
2022/11/07 03:15:02;;;;;;;20.00;10.10;;;10.70;99.90;;;;;;5095364;28;20024;-66
2022/11/07 03:17:27;;;;;;;17.88;10.30;;;10.90;99.90;;;;;;5095114;28;20417;-67
2022/11/07 03:19:53;;;;;;;20.50;11.57;;;10.80;99.90;;;;;;5095195;28;20024;-67
2022/11/07 03:22:19;;;;;;;21.67;11.80;;;10.80;99.90;;;;;;5094758;28;20032;-65
2022/11/07 03:24:44;;;;;;;21.40;12.02;;;10.80;99.90;;;;;;5095264;28;20036;-66
2022/11/07 03:27:10;;;;;;;28.65;14.05;;;10.80;99.90;;;;;;5095221;28;20024;-66
2022/11/07 03:29:36;;;;;;;28.90;15.63;;;10.70;99.90;;;;;;5095015;28;20067;-67
2022/11/07 03:32:01;;;;;;;32.95;17.27;;;10.70;99.90;;;;;;5094643;28;20398;-67
2022/11/07 03:34:27;;;;;;;38.40;20.88;;;10.70;99.90;;;;;;5095201;28;20024;-67
2022/11/07 03:36:53;;;;;;;39.20;22.58;;;10.70;99.90;;;;;;5094473;28;20024;-67
2022/11/07 03:39:19;;;;;;;45.95;27.45;;;10.70;99.90;;;;;;5094800;28;20040;-66
2022/11/07 03:41:44;;;;;;;53.45;30.75;;;10.70;99.90;;;;;;5094569;28;20402;-67
2022/11/07 03:44:10;;;;;;;56.47;32.83;;;10.80;99.90;;;;;;5094853;28;20031;-67
2022/11/07 03:46:36;;;;;;;73.50;42.38;;;10.70;99.90;;;;;;5094644;28;20031;-66
2022/11/07 03:49:01;;;;;;;78.38;46.13;;;10.70;99.90;;;;;;5094491;28;20028;-67
2022/11/07 03:51:27;;;;;;;80.25;46.92;;;10.70;99.90;;;;;;5094093;28;20028;-67
2022/11/07 03:53:53;;;;;;;75.53;46.45;;;10.70;99.90;;;;;;5094662;28;20046;-66
2022/11/07 03:56:19;;;;;;;85.72;47.95;;;10.70;99.90;;;;;;5094024;28;20209;-66
2022/11/07 03:58:44;;;;;;;75.35;46.33;;;10.70;99.90;;;;;;5094511;28;20043;-67
2022/11/07 04:01:12;;;;;;;78.68;46.95;;;10.80;99.90;;;;;;5094448;28;20483;-66
2022/11/07 04:03:38;;;;;;;76.40;46.72;;;10.70;99.90;;;;;;5094594;28;20028;-67
2022/11/07 04:06:04;;;;;;;72.93;44.60;;;10.70;99.90;;;;;;5092708;28;20032;-67
2022/11/07 04:08:30;;;;;;;72.95;43.65;;;10.70;99.90;;;;;;5094174;28;20452;-66
2022/11/07 04:10:55;;;;;;;75.88;44.38;;;10.60;99.90;;;;;;5094525;28;20442;-67
2022/11/07 04:18:34;;;;;;;64.68;41.28;;;10.60;99.90;;;;;;5094354;28;20120;-67
2022/11/07 04:21:00;;;;;;;64.63;39.97;;;10.40;99.90;;;;;;5093839;28;20103;-66
2022/11/07 04:23:26;;;;;;;73.18;42.70;;;10.40;99.90;;;;;;5093718;28;20028;-66
2022/11/07 04:28:36;;;;;;;62.92;36.60;;;10.10;99.90;;;;;;5094164;28;20085;-67
2022/11/07 04:31:01;;;;;;;53.25;33.28;;;10.10;99.90;;;;;;5093795;28;20028;-66
2022/11/07 04:33:27;;;;;;;48.70;30.40;;;10.00;99.90;;;;;;5093569;28;20035;-66
2022/11/07 04:35:52;;;;;;;41.90;25.95;;;9.90;99.90;;;;;;5093301;28;20115;-66
2022/11/07 04:38:18;;;;;;;39.15;24.65;;;9.90;99.90;;;;;;5093693;28;20035;-66
2022/11/07 04:40:44;;;;;;;45.55;25.45;;;9.90;99.90;;;;;;5093662;28;20056;-66
2022/11/07 04:43:10;;;;;;;40.67;23.38;;;9.80;99.90;;;;;;5093695;28;20044;-66
2022/11/07 04:45:39;;;;;;;35.80;21.55;;;9.70;99.90;;;;;;5093680;28;20668;-67
2022/11/07 04:48:05;;;;;;;34.13;20.35;;;9.80;99.90;;;;;;5093670;28;20024;-67
2022/11/07 04:50:31;;;;;;;35.60;19.10;;;9.70;99.90;;;;;;5093154;28;20024;-66
2022/11/07 04:52:56;;;;;;;30.83;17.30;;;9.50;99.90;;;;;;5093470;28;20026;-67
2022/11/07 04:55:29;;;;;;;25.25;15.75;;;9.50;99.90;;;;;;5093254;28;20409;-66
2022/11/07 04:57:55;;;;;;;28.75;17.05;;;9.50;99.90;;;;;;5093281;28;20368;-66
2022/11/07 05:00:21;;;;;;;23.88;15.65;;;9.40;99.90;;;;;;5093438;28;20024;-67
2022/11/07 05:02:48;;;;;;;31.58;16.02;;;9.40;99.90;;;;;;5093061;28;20089;-67
2022/11/07 05:05:15;;;;;;;26.75;15.75;;;9.20;99.90;;;;;;5092767;28;20375;-66
2022/11/07 05:07:41;;;;;;;29.52;16.20;;;9.40;99.90;;;;;;5092130;28;20097;-65
2022/11/07 05:10:11;;;;;;;24.50;14.90;;;9.30;99.90;;;;;;5092914;28;20467;-66
2022/11/07 05:12:37;;;;;;;25.65;15.48;;;9.30;99.90;;;;;;5092921;28;20446;-66
2022/11/07 05:15:03;;;;;;;25.15;15.07;;;9.20;99.90;;;;;;5093173;28;20055;-66
2022/11/07 05:17:29;;;;;;;22.73;13.10;;;9.20;99.90;;;;;;5091235;28;20051;-67
2022/11/07 05:19:54;;;;;;;20.67;12.63;;;9.10;99.90;;;;;;5092782;28;20050;-67
2022/11/07 05:25:05;;;;;;;19.38;11.57;;;9.10;99.90;;;;;;5092912;28;20046;-67
2022/11/07 05:27:30;;;;;;;15.15;9.70;;;9.10;99.90;;;;;;5092465;28;20024;-67
2022/11/07 05:29:56;;;;;;;16.98;9.77;;;9.10;99.90;;;;;;5091722;28;20391;-66
2022/11/07 05:32:22;;;;;;;16.42;10.68;;;9.20;99.90;;;;;;5092475;28;20072;-66
2022/11/07 05:34:48;;;;;;;15.70;9.00;;;9.10;99.90;;;;;;5092099;28;20051;-67
2022/11/07 05:37:14;;;;;;;16.38;9.02;;;9.10;99.90;;;;;;5092532;28;20023;-66
2022/11/07 05:39:39;;;;;;;15.68;8.65;;;9.00;99.90;;;;;;5092413;28;20024;-66
2022/11/07 05:42:05;;;;;;;14.20;8.57;;;9.00;99.90;;;;;;5092156;28;20631;-65
2022/11/07 05:44:31;;;;;;;12.18;7.95;;;8.90;99.90;;;;;;5092633;28;20039;-67
2022/11/07 05:46:57;;;;;;;14.05;8.88;;;9.00;99.90;;;;;;5092360;28;20685;-66
2022/11/07 05:49:24;;;;;;;15.45;9.07;;;9.10;99.90;;;;;;5091893;28;20036;-67
2022/11/07 05:51:49;;;;;;;13.45;8.02;;;9.10;99.90;;;;;;5092280;28;20034;-66
2022/11/07 05:54:15;;;;;;;16.60;8.35;;;9.10;99.90;;;;;;5092541;28;20024;-67
2022/11/07 05:56:42;;;;;;;15.05;6.85;;;9.10;99.90;;;;;;5092049;28;20024;-66
2022/11/07 05:59:09;;;;;;;10.45;6.53;;;9.10;99.90;;;;;;5092078;28;20103;-66
2022/11/07 06:01:35;;;;;;;10.88;7.68;;;9.10;99.90;;;;;;5090680;28;20024;-66
2022/11/07 06:04:03;;;;;;;11.38;7.47;;;9.10;99.90;;;;;;5091651;28;20035;-66
2022/11/07 06:06:30;;;;;;;13.10;8.02;;;9.10;99.90;;;;;;5092495;28;20020;-66
2022/11/07 06:08:56;;;;;;;12.85;8.20;;;9.10;99.90;;;;;;5091880;28;20032;-67
2022/11/07 06:11:22;;;;;;;13.13;8.20;;;9.00;99.90;;;;;;5091855;28;20114;-67
2022/11/07 06:13:48;;;;;;;11.38;7.70;;;8.90;99.90;;;;;;5091918;28;20031;-66
2022/11/07 06:16:14;;;;;;;11.60;7.72;;;8.90;99.90;;;;;;5091382;28;20036;-66
2022/11/07 06:18:40;;;;;;;12.38;7.82;;;8.80;99.90;;;;;;5091914;28;20023;-66
2022/11/07 06:21:06;;;;;;;11.15;7.30;;;8.80;99.90;;;;;;5091729;28;20475;-67
2022/11/07 06:23:31;;;;;;;11.90;7.60;;;8.70;99.90;;;;;;5091621;28;20032;-65
2022/11/07 06:25:57;;;;;;;12.05;7.53;;;8.60;99.90;;;;;;5091826;28;20482;-66
2022/11/07 06:28:23;;;;;;;10.27;5.75;;;8.50;99.90;;;;;;5092197;28;20020;-65
2022/11/07 06:30:48;;;;;;;10.90;6.05;;;8.60;99.90;;;;;;5091313;28;20031;-66
2022/11/07 06:33:17;;;;;;;12.73;6.38;;;8.60;99.90;;;;;;5091586;28;20032;-67
2022/11/07 06:35:43;;;;;;;12.90;5.00;;;8.70;99.90;;;;;;5091565;28;20031;-66
2022/11/07 06:38:11;;;;;;;8.10;5.45;;;8.70;99.90;;;;;;5091685;28;20398;-66
2022/11/07 06:40:38;;;;;;;12.02;6.72;;;8.70;99.90;;;;;;5091897;28;20028;-66
2022/11/07 06:43:06;;;;;;;9.57;6.13;;;8.40;99.90;;;;;;5091397;28;20079;-67
2022/11/07 06:45:31;;;;;;;13.80;7.10;;;8.50;99.90;;;;;;5090997;28;20464;-66
2022/11/07 06:47:57;;;;;;;12.60;8.75;;;8.30;99.90;;;;;;5091598;28;20070;-66
2022/11/07 06:50:23;;;;;;;12.38;7.45;;;8.20;99.90;;;;;;5091586;28;20063;-67
2022/11/07 06:52:49;;;;;;;13.90;8.57;;;8.20;99.90;;;;;;5091540;28;20020;-66
2022/11/07 06:55:14;;;;;;;14.18;7.55;;;7.90;99.90;;;;;;5091891;28;20081;-66
2022/11/07 06:57:40;;;;;;;16.23;7.47;;;7.90;99.90;;;;;;5091453;28;20050;-66
2022/11/07 07:00:06;;;;;;;14.77;7.25;;;7.90;99.90;;;;;;5090978;28;20100;-66
2022/11/07 07:02:32;;;;;;;13.23;7.60;;;7.80;99.90;;;;;;5091593;28;20454;-66
2022/11/07 07:04:58;;;;;;;17.23;7.28;;;7.90;99.90;;;;;;5091561;28;20070;-66
2022/11/07 07:07:23;;;;;;;15.77;7.22;;;7.70;99.90;;;;;;5091716;28;20054;-65
2022/11/07 07:09:49;;;;;;;14.75;7.53;;;7.70;99.90;;;;;;5091203;28;20471;-65
2022/11/07 07:12:15;;;;;;;12.98;7.50;;;7.80;99.90;;;;;;5091489;28;20031;-66
2022/11/07 07:14:40;;;;;;;10.15;6.53;;;7.90;99.90;;;;;;5089589;28;20035;-66
2022/11/07 07:17:06;;;;;;;13.68;6.43;;;8.20;99.90;;;;;;5091467;28;20030;-66
2022/11/07 07:19:32;;;;;;;17.52;7.28;;;9.10;99.90;;;;;;5091208;28;20059;-67
2022/11/07 07:21:57;;;;;;;13.20;6.35;;;9.20;99.90;;;;;;5092285;28;20393;-66
2022/11/07 07:24:23;;;;;;;10.60;6.10;;;9.40;99.90;;;;;;5091535;28;20036;-66
2022/11/07 07:26:49;;;;;;;8.55;4.82;;;10.30;99.90;;;;;;5091283;28;20552;-66
2022/11/07 07:29:14;;;;;;;7.10;4.18;;;11.50;99.90;;;;;;5091749;28;20054;-67
2022/11/07 07:31:40;;;;;;;8.82;4.10;;;12.40;99.90;;;;;;5095568;28;20077;-67
2022/11/07 07:34:06;;;;;;;5.80;3.28;;;13.50;99.90;;;;;;5095015;28;20028;-66
2022/11/07 07:36:32;;;;;;;6.45;3.50;;;13.90;99.90;;;;;;5074563;28;20033;-66
2022/11/07 07:38:57;;;;;;;7.20;3.67;;;14.30;99.90;;;;;;5074477;28;20037;-67
2022/11/07 07:41:23;;;;;;;8.05;3.85;;;15.00;99.90;;;;;;5074619;28;20411;-67
2022/11/07 07:43:49;;;;;;;5.70;3.50;;;15.70;99.90;;;;;;5073917;28;20151;-66
2022/11/07 07:46:20;;;;;;;7.15;4.97;;;15.40;99.90;;;;;;5074317;28;20036;-66
2022/11/07 07:48:46;;;;;;;7.63;4.38;;;15.80;99.90;;;;;;5074838;28;20432;-67
2022/11/07 07:51:12;;;;;;;5.88;4.10;;;16.50;99.90;;;;;;5075280;28;20499;-66
2022/11/07 07:53:37;;;;;;;6.05;3.80;;;16.30;99.90;;;;;;5075167;28;20052;-67
2022/11/07 07:56:05;;;;;;;4.35;2.70;;;16.30;99.90;;;;;;5074921;28;20119;-66
2022/11/07 07:58:31;;;;;;;4.32;2.60;;;17.90;99.90;;;;;;5075004;28;20609;-66
2022/11/07 08:00:57;;;;;;;5.78;2.65;;;19.10;99.90;;;;;;5075473;28;20048;-66
2022/11/07 08:03:23;;;;;;;5.40;2.60;;;18.70;99.90;;;;;;5074177;28;20035;-66
2022/11/07 08:05:57;;;;;;;4.47;2.45;;;18.30;99.90;;;;;;5074116;28;20028;-66
2022/11/07 08:08:23;;;;;;;;;;;18.20;99.90;;;;;;5074747;28;20035;-66
2022/11/07 08:10:55;;;;;;;4.47;2.40;;;17.70;99.90;;;;;;5075471;28;19904;-67
2022/11/07 08:13:24;;;;;;;5.50;2.40;;;19.50;99.90;;;;;;5075017;28;20133;-66
2022/11/07 08:15:51;;;;;;;3.97;2.40;;;18.40;99.90;;;;;;5074916;28;20441;-66
2022/11/07 08:18:20;;;;;;;4.05;1.98;;;19.30;99.90;;;;;;5074531;28;20028;-66
2022/11/07 08:20:50;;;;;;;3.40;2.17;;;19.50;99.90;;;;;;5074011;28;20024;-66
2022/11/07 08:23:16;;;;;;;4.00;2.70;;;20.10;99.90;;;;;;5073755;28;20074;-66
2022/11/07 08:25:47;;;;;;;8.25;3.58;;;19.80;99.90;;;;;;5073799;28;20080;-66
2022/11/07 08:28:13;;;;;;;4.85;3.42;;;18.60;99.90;;;;;;5073606;28;20037;-66
2022/11/07 08:30:38;;;;;;;6.10;3.38;;;19.50;99.90;;;;;;5074313;28;20025;-66
2022/11/07 08:33:04;;;;;;;5.00;3.22;;;19.80;99.90;;;;;;5089476;28;20016;-66
2022/11/07 08:35:30;;;;;;;4.50;2.75;;;20.20;99.90;;;;;;5093362;28;20525;-67
2022/11/07 08:37:57;;;;;;;4.40;2.25;;;19.60;99.90;;;;;;5093509;28;20058;-66
2022/11/07 08:40:22;;;;;;;3.55;2.20;;;20.50;99.90;;;;;;5093373;28;20023;-66
2022/11/07 08:42:48;;;;;;;3.28;2.05;;;20.50;99.90;;;;;;5093702;28;20498;-66
2022/11/07 08:45:14;;;;;;;4.72;2.08;;;20.00;99.90;;;;;;5092875;28;20036;-66
2022/11/07 08:47:40;;;;;;;3.10;1.95;;;20.90;99.90;;;;;;5092528;28;20024;-66
2022/11/07 08:50:06;;;;;;;4.53;1.90;;;20.00;99.90;;;;;;5091108;28;20401;-67
2022/11/07 08:52:34;;;;;;;4.72;2.10;;;21.90;99.90;;;;;;5092253;28;20103;-66
2022/11/07 08:55:01;;;;;;;3.35;2.15;;;21.40;99.90;;;;;;5092741;28;20032;-68
2022/11/07 08:57:27;;;;;;;3.65;1.95;;;21.00;99.90;;;;;;5093300;28;20069;-67
2022/11/07 08:59:52;;;;;;;2.83;1.90;;;21.90;99.90;;;;;;5092833;28;20028;-67
2022/11/07 09:02:18;;;;;;;4.60;2.05;;;21.40;99.90;;;;;;5092453;28;20056;-67
2022/11/07 09:04:44;;;;;;;4.22;2.22;;;21.70;99.90;;;;;;5092207;28;20433;-67
2022/11/07 09:07:09;;;;;;;4.40;2.00;;;21.70;99.90;;;;;;5092857;28;20065;-68
2022/11/07 09:09:35;;;;;;;3.92;2.30;;;22.90;99.90;;;;;;5092167;28;20024;-65
2022/11/07 09:12:01;;;;;;;2.53;1.90;;;22.90;99.90;;;;;;5092630;28;20028;-64
2022/11/07 09:14:27;;;;;;;3.40;2.20;;;23.30;99.90;;;;;;5092524;28;20032;-65
2022/11/07 09:16:53;;;;;;;4.00;2.00;;;23.00;99.90;;;;;;5092857;28;20746;-65
2022/11/07 09:19:18;;;;;;;2.38;1.85;;;22.80;99.90;;;;;;5092807;28;20024;-62
2022/11/07 09:21:44;;;;;;;5.88;1.80;;;23.20;99.90;;;;;;5093019;28;20028;-65
2022/11/07 09:24:10;;;;;;;4.72;2.10;;;23.20;99.90;;;;;;5092150;28;20069;-63
2022/11/07 09:26:36;;;;;;;4.13;2.05;;;22.10;99.90;;;;;;5091521;28;20066;-65
2022/11/07 09:29:02;;;;;;;3.47;1.90;;;22.50;99.90;;;;;;5092153;28;20475;-64
2022/11/07 09:31:28;;;;;;;2.70;1.90;;;23.50;99.90;;;;;;5092215;28;20028;-64
2022/11/07 09:33:53;;;;;;;3.13;1.60;;;22.70;99.90;;;;;;5092770;28;20099;-64
2022/11/07 09:36:20;;;;;;;3.85;1.92;;;23.00;99.90;;;;;;5092669;28;20024;-64
2022/11/07 09:38:46;;;;;;;2.65;1.88;;;23.00;99.90;;;;;;5092550;28;20375;-63
2022/11/07 09:41:21;;;;;;;4.68;1.90;;;23.50;99.90;;;;;;5091830;28;20039;-64
2022/11/07 09:44:15;;;;;;;4.40;1.98;;;23.90;99.90;;;;;;5092780;28;20024;-64
2022/11/07 09:47:25;;;;;;;3.10;1.73;;;24.40;99.90;;;;;;5092322;28;20024;-64
2022/11/07 09:49:54;;;;;;;3.38;1.98;;;24.40;99.90;;;;;;5091554;28;20047;-64
2022/11/07 09:52:42;;;;;;;2.88;1.80;;;24.30;99.90;;;;;;5091763;28;20017;-65
2022/11/07 09:55:13;;;;;;;4.05;2.00;;;24.50;99.90;;;;;;5092116;28;20047;-64
2022/11/07 09:57:39;;;;;;;3.05;1.67;;;25.20;99.90;;;;;;5092228;28;20051;-64
2022/11/07 10:00:15;;;;;;;4.05;1.77;;;24.40;99.90;;;;;;5092417;28;20052;-64
2022/11/07 10:02:55;;;;;;;2.85;1.90;;;25.70;99.90;;;;;;5092389;28;20024;-64
2022/11/07 10:05:49;;;;;;;2.72;1.70;;;24.00;99.90;;;;;;5092055;28;20028;-64
2022/11/07 10:08:27;;;;;;;3.67;2.00;;;25.40;99.90;;;;;;5091698;28;20023;-63
2022/11/07 10:11:27;;;;;;;1.98;1.67;;;24.70;99.90;;;;;;5091943;28;20097;-64
2022/11/07 10:14:25;;;;;;;2.90;1.60;;;25.00;99.90;;;;;;5091338;28;20075;-64
2022/11/07 10:16:50;;;;;;;3.08;1.50;;;24.00;99.90;;;;;;5091927;28;20389;-64
2022/11/07 10:19:34;;;;;;;2.33;1.60;;;24.90;99.90;;;;;;5092251;28;20115;-64
2022/11/07 10:22:20;;;;;;;2.13;1.70;;;25.50;99.90;;;;;;5091473;28;20489;-64
2022/11/07 10:25:16;;;;;;;3.33;1.60;;;24.20;99.90;;;;;;5091698;28;20123;-64
2022/11/07 10:27:46;;;;;;;3.30;1.60;;;24.80;99.90;;;;;;5092258;28;20031;-64
2022/11/07 10:30:18;;;;;;;4.68;1.60;;;25.70;99.90;;;;;;5091709;28;20024;-64
2022/11/07 10:33:13;;;;;;;2.67;1.70;;;27.00;99.90;;;;;;5091716;28;20024;-64
2022/11/07 10:35:46;;;;;;;3.20;1.70;;;25.90;99.90;;;;;;5090109;28;20024;-64
2022/11/07 10:38:27;;;;;;;4.13;1.60;;;25.60;99.90;;;;;;5091477;28;20024;-64
2022/11/07 10:40:53;;;;;;;3.75;1.45;;;25.10;99.90;;;;;;5091708;28;20032;-62
2022/11/07 10:43:54;;;;;;;2.67;1.40;;;25.90;99.90;;;;;;5091574;28;20044;-64
2022/11/07 10:46:24;;;;;;;3.42;1.67;;;26.00;99.90;;;;;;5086610;28;20044;-64
2022/11/07 10:48:58;;;;;;;3.28;1.88;;;25.90;99.90;;;;;;5091687;28;20527;-63
2022/11/07 10:51:38;;;;;;;3.00;1.58;;;25.30;99.90;;;;;;5090219;28;20390;-63
2022/11/07 10:54:06;;;;;;;2.22;1.50;;;25.20;99.90;;;;;;5091680;28;20081;-65
2022/11/07 10:56:46;;;;;;;2.60;1.60;;;25.50;99.90;;;;;;5092040;28;20024;-65
2022/11/07 10:59:26;;;;;;;2.45;1.40;;;26.00;99.90;;;;;;5091481;28;20089;-65
2022/11/07 11:01:54;;;;;;;2.17;1.40;;;26.20;99.90;;;;;;5091158;28;20482;-65
2022/11/07 11:04:26;;;;;;;2.63;1.60;;;25.20;99.90;;;;;;5091291;28;20037;-64
2022/11/07 11:07:02;;;;;;;4.82;1.35;;;25.60;99.90;;;;;;5094734;28;20506;-64
2022/11/07 11:09:32;;;;;;;3.38;1.88;;;26.00;99.90;;;;;;5095454;28;20085;-66
2022/11/07 11:12:10;;;;;;;1.95;1.30;;;26.60;99.90;;;;;;5095394;28;20026;-65
2022/11/07 11:14:36;;;;;;;3.53;1.50;;;26.50;99.90;;;;;;5095762;28;20016;-65
2022/11/07 11:17:03;;;;;;;2.00;1.30;;;26.00;99.90;;;;;;5094781;28;20478;-65
2022/11/07 11:19:47;;;;;;;3.90;1.58;;;24.40;99.90;;;;;;5095006;28;20115;-64
2022/11/07 11:22:19;;;;;;;4.45;2.10;;;24.80;99.90;;;;;;5094729;28;20040;-64
2022/11/07 11:24:45;;;;;;;3.85;2.38;;;24.40;99.90;;;;;;5094692;28;20067;-64
2022/11/07 11:27:24;;;;;;;2.63;1.55;;;24.20;99.90;;;;;;5094863;28;20463;-62
2022/11/07 11:30:08;;;;;;;1.50;1.30;;;24.30;99.90;;;;;;5094446;28;20571;-63
2022/11/07 11:32:44;;;;;;;2.47;1.30;;;24.00;99.90;;;;;;5094766;28;20433;-62
2022/11/07 11:35:35;;;;;;;3.00;1.52;;;23.70;99.90;;;;;;5094161;28;20059;-62
2022/11/07 11:38:23;;;;;;;1.73;1.35;;;23.40;99.90;;;;;;5094102;28;20137;-62
2022/11/07 11:40:59;;;;;;;3.25;1.20;;;23.10;99.90;;;;;;5095078;28;20103;-64
2022/11/07 11:43:32;;;;;;;2.03;1.20;;;22.80;99.90;;;;;;5094930;28;20141;-64
2022/11/07 11:46:15;;;;;;;1.77;1.30;;;23.40;99.90;;;;;;5094184;28;20106;-62
2022/11/07 11:48:50;;;;;;;3.10;1.40;;;22.30;99.90;;;;;;5094115;28;20143;-63
2022/11/07 11:51:30;;;;;;;1.63;1.30;;;22.90;99.90;;;;;;5093137;28;20020;-63
2022/11/07 11:53:56;;;;;;;1.38;1.20;;;22.60;99.90;;;;;;5094399;28;20016;-64
2022/11/07 11:56:33;;;;;;;2.03;1.27;;;22.70;99.90;;;;;;5094339;28;20108;-63
2022/11/07 11:59:08;;;;;;;2.55;1.35;;;23.30;99.90;;;;;;5094424;28;20394;-63
2022/11/07 12:01:58;;;;;;;2.05;1.30;;;23.20;99.90;;;;;;5094447;28;20044;-63
2022/11/07 12:04:55;;;;;;;2.05;1.30;;;22.50;99.90;;;;;;5094496;28;20043;-63
2022/11/07 12:07:53;;;;;;;2.10;1.25;;;21.20;99.90;;;;;;5093389;28;20486;-62
2022/11/07 12:10:45;;;;;;;2.70;1.30;;;21.30;99.90;;;;;;5093904;28;20102;-64
2022/11/07 12:13:29;;;;;;;2.42;1.42;;;21.50;99.90;;;;;;5091915;28;20039;-64
2022/11/07 12:16:05;;;;;;;1.20;1.10;;;22.40;99.90;;;;;;5091147;28;20044;-62
2022/11/07 12:18:39;;;;;;;2.70;1.30;;;22.00;99.90;;;;;;5091752;28;20036;-63
2022/11/07 12:21:17;;;;;;;2.83;1.15;;;21.50;99.90;;;;;;5091433;28;20421;-64
2022/11/07 12:24:08;;;;;;;2.53;1.50;;;21.60;99.90;;;;;;5091349;28;20055;-64
2022/11/07 12:26:41;;;;;;;2.20;1.30;;;21.90;99.90;;;;;;5090907;28;20493;-63
2022/11/07 12:29:36;;;;;;;2.53;1.20;;;21.90;99.90;;;;;;5091489;28;20097;-64
2022/11/07 12:32:13;;;;;;;3.05;1.20;;;21.70;99.90;;;;;;5090809;28;20044;-63
2022/11/07 12:35:14;;;;;;;3.38;1.50;;;22.20;99.90;;;;;;5090784;28;20035;-63
2022/11/07 12:38:18;;;;;;;2.22;1.20;;;21.80;99.90;;;;;;5091075;28;20044;-63
2022/11/07 12:40:58;;;;;;;1.83;1.30;;;21.80;99.90;;;;;;5031075;28;20083;-64
2022/11/07 12:43:36;;;;;;;3.25;1.25;;;21.60;99.90;;;;;;5030945;28;20522;-62
2022/11/07 12:46:24;;;;;;;3.08;1.33;;;21.40;99.90;;;;;;5030627;28;20465;-63
2022/11/07 12:49:02;;;;;;;2.20;1.30;;;21.10;99.90;;;;;;5029600;28;20025;-64
2022/11/07 12:51:47;;;;;;;1.73;1.20;;;21.00;99.90;;;;;;5011533;28;20069;-64
2022/11/07 12:54:31;;;;;;;2.03;1.23;;;20.70;99.90;;;;;;5010890;28;20037;-63
2022/11/07 12:56:57;;;;;;;2.80;1.30;;;20.60;99.90;;;;;;5011151;28;20017;-63
2022/11/07 12:59:26;;;;;;;3.13;1.23;;;21.00;99.90;;;;;;5010789;28;20574;-65
2022/11/07 13:02:17;;;;;;;2.17;1.10;;;20.90;99.90;;;;;;5010936;28;20492;-64
2022/11/07 13:04:54;;;;;;;1.40;1.20;;;21.40;99.90;;;;;;5011122;28;20128;-64
2022/11/07 13:07:26;;;;;;;1.67;1.20;;;21.50;99.90;;;;;;5010854;28;20030;-64
2022/11/07 13:10:12;;;;;;;1.92;1.33;;;21.40;99.90;;;;;;5010974;28;20041;-63